Time;durP1;ratioP1;P1;durP2;ratioP2;P2;SDS_P1;SDS_P2;PMS_P1;PMS_P2;Temp;Humidity;BMP_temperature;BMP_pressure;BME280_temperature;BME280_humidity;BME280_pressure;Samples;Min_cycle;Max_cycle;Signal;HPM_P1;HPM_P2
2022/03/08 00:02:07;;;;;;;2.65;1.58;;;18.30;42.50;;;;;;5062762;28;20185;-87
2022/03/08 00:04:39;;;;;;;3.72;1.60;;;18.30;42.70;;;;;;5047070;28;20153;-88
2022/03/08 00:07:09;;;;;;;2.60;1.52;;;18.30;42.50;;;;;;5061742;28;20703;-83
2022/03/08 00:09:39;;;;;;;3.53;1.60;;;18.30;42.60;;;;;;5046872;28;20249;-83
2022/03/08 00:12:07;;;;;;;2.65;1.23;;;18.30;42.60;;;;;;5046136;28;20184;-87
2022/03/08 00:14:37;;;;;;;2.05;1.23;;;18.30;42.70;;;;;;5062505;28;20196;-85
2022/03/08 00:17:03;;;;;;;3.28;1.38;;;18.30;42.80;;;;;;5046472;28;20276;-86
2022/03/08 00:19:29;;;;;;;4.55;1.77;;;18.30;42.80;;;;;;5081242;28;20162;-82
2022/03/08 00:21:55;;;;;;;4.72;1.38;;;18.20;42.90;;;;;;5064716;28;20176;-84
2022/03/08 00:24:21;;;;;;;2.92;1.50;;;18.20;42.90;;;;;;5080826;28;20197;-83
2022/03/08 00:26:48;;;;;;;3.72;1.70;;;18.20;43.00;;;;;;5081015;28;20531;-83
2022/03/08 00:29:15;;;;;;;2.67;1.13;;;18.20;43.10;;;;;;5082250;28;20189;-83
2022/03/08 00:31:42;;;;;;;3.65;1.35;;;18.20;43.00;;;;;;5064034;28;20212;-85
2022/03/08 00:34:08;;;;;;;2.10;1.45;;;18.30;43.10;;;;;;5043366;28;20297;-84
2022/03/08 00:36:33;;;;;;;2.25;1.30;;;18.30;43.10;;;;;;5029088;28;20197;-84
2022/03/08 00:39:01;;;;;;;3.85;1.60;;;18.20;43.10;;;;;;5029635;28;20166;-83
2022/03/08 00:41:31;;;;;;;4.15;1.40;;;18.20;43.00;;;;;;5015967;28;20186;-82
2022/03/08 00:44:01;;;;;;;2.90;1.40;;;18.20;43.20;;;;;;5049386;28;20185;-82
2022/03/08 00:46:33;;;;;;;3.45;1.27;;;18.20;43.20;;;;;;5044729;28;20267;-82
2022/03/08 00:49:02;;;;;;;3.42;1.40;;;18.20;43.30;;;;;;5025400;28;20548;-82
2022/03/08 00:51:27;;;;;;;2.88;1.60;;;18.20;43.30;;;;;;5026891;28;20212;-82
2022/03/08 00:53:53;;;;;;;3.30;1.63;;;18.10;43.20;;;;;;5059740;28;20154;-84
2022/03/08 00:56:19;;;;;;;2.20;1.30;;;18.10;43.20;;;;;;5042554;28;20154;-87
2022/03/08 00:58:45;;;;;;;3.10;1.63;;;18.20;43.30;;;;;;5026138;28;20170;-82
2022/03/08 01:01:15;;;;;;;2.60;1.30;;;18.20;43.20;;;;;;5025346;28;20186;-84
2022/03/08 01:03:41;;;;;;;3.20;1.38;;;18.10;43.30;;;;;;5009053;28;20189;-83
2022/03/08 01:06:08;;;;;;;2.97;1.38;;;18.10;43.00;;;;;;5042093;28;20150;-86
2022/03/08 01:08:34;;;;;;;2.97;1.50;;;18.10;43.40;;;;;;5025735;28;20714;-82
2022/03/08 01:11:01;;;;;;;2.50;1.30;;;18.10;43.90;;;;;;5025671;28;20163;-83
2022/03/08 01:13:30;;;;;;;4.03;1.58;;;18.10;43.20;;;;;;5041582;28;20165;-83
2022/03/08 01:15:59;;;;;;;4.55;1.63;;;18.10;43.50;;;;;;5040852;28;20178;-84
2022/03/08 01:18:28;;;;;;;2.17;1.25;;;18.10;43.50;;;;;;5041194;28;20186;-85
2022/03/08 01:20:58;;;;;;;3.20;1.45;;;18.10;43.40;;;;;;5024492;28;20185;-82
2022/03/08 01:23:29;;;;;;;4.88;1.55;;;18.10;43.30;;;;;;5041521;28;20280;-87
2022/03/08 01:25:59;;;;;;;3.35;1.40;;;18.10;43.50;;;;;;5008134;28;20649;-81
2022/03/08 01:28:30;;;;;;;2.33;1.30;;;18.10;43.60;;;;;;5058973;28;20194;-84
2022/03/08 01:31:01;;;;;;;3.55;1.45;;;18.10;43.70;;;;;;5057058;28;20178;-84
2022/03/08 01:33:31;;;;;;;4.50;1.35;;;18.10;43.50;;;;;;5024705;28;20189;-85
2022/03/08 01:35:58;;;;;;;2.30;1.45;;;18.10;43.70;;;;;;5060831;28;20224;-86
2022/03/08 01:38:24;;;;;;;4.50;1.20;;;18.10;43.60;;;;;;5062836;28;20168;-85
2022/03/08 01:40:50;;;;;;;3.42;1.42;;;18.10;43.70;;;;;;5068381;28;20184;-83
2022/03/08 01:43:17;;;;;;;2.50;1.48;;;18.00;43.50;;;;;;5066675;28;20158;-82
2022/03/08 01:45:43;;;;;;;2.00;1.40;;;18.00;43.60;;;;;;5066863;28;20631;-82
2022/03/08 01:48:08;;;;;;;4.32;1.30;;;18.10;43.60;;;;;;5067206;28;20228;-84
2022/03/08 01:50:39;;;;;;;4.40;1.38;;;18.00;43.60;;;;;;5080174;28;20157;-83
2022/03/08 01:53:07;;;;;;;3.10;1.60;;;18.00;43.80;;;;;;5043650;28;20177;-86
2022/03/08 01:55:37;;;;;;;1.98;1.48;;;18.10;43.70;;;;;;5061084;28;20272;-85
2022/03/08 01:58:03;;;;;;;2.53;1.10;;;18.10;43.70;;;;;;5044022;28;20193;-81
2022/03/08 02:00:29;;;;;;;3.00;1.73;;;18.10;43.70;;;;;;5061297;28;20166;-82
2022/03/08 02:02:59;;;;;;;3.03;1.48;;;18.00;43.70;;;;;;5044663;28;20157;-84
2022/03/08 02:05:25;;;;;;;3.90;1.42;;;18.00;43.70;;;;;;5077260;28;20158;-83
2022/03/08 02:07:50;;;;;;;2.35;1.45;;;18.00;43.90;;;;;;5061155;28;20166;-84
2022/03/08 02:10:17;;;;;;;4.10;1.60;;;18.00;44.00;;;;;;5061449;28;20618;-86
2022/03/08 02:12:43;;;;;;;2.20;1.35;;;18.00;43.90;;;;;;5078326;28;20168;-86
2022/03/08 02:15:16;;;;;;;3.95;1.58;;;18.10;43.90;;;;;;5060971;28;20161;-82
2022/03/08 02:17:42;;;;;;;2.78;1.50;;;18.00;43.80;;;;;;5060356;28;20158;-82
2022/03/08 02:20:10;;;;;;;2.60;1.50;;;18.00;43.90;;;;;;5060646;28;20189;-84
2022/03/08 02:22:36;;;;;;;2.47;1.58;;;18.00;43.90;;;;;;5044348;28;20161;-82
2022/03/08 02:25:03;;;;;;;2.38;1.30;;;18.00;43.90;;;;;;5077320;28;20240;-84
2022/03/08 02:27:45;;;;;;;4.85;1.70;;;18.00;43.90;;;;;;5044439;28;20182;-85
2022/03/08 02:30:11;;;;;;;2.60;1.40;;;18.00;43.80;;;;;;5060276;28;20176;-82
2022/03/08 02:32:37;;;;;;;1.65;1.33;;;18.10;43.90;;;;;;5077331;28;20236;-84
2022/03/08 02:35:07;;;;;;;2.13;1.30;;;18.00;44.10;;;;;;5077048;28;20228;-84
2022/03/08 02:37:39;;;;;;;1.80;1.30;;;18.00;44.10;;;;;;5060304;28;20570;-85
2022/03/08 02:40:09;;;;;;;3.20;1.50;;;18.00;43.90;;;;;;5043702;28;20169;-84
2022/03/08 02:42:36;;;;;;;4.20;1.50;;;18.00;43.90;;;;;;5043180;28;20188;-82
2022/03/08 02:45:02;;;;;;;4.70;1.40;;;18.00;44.20;;;;;;5043132;28;20188;-85
2022/03/08 02:47:34;;;;;;;3.10;1.23;;;18.00;44.30;;;;;;5043953;28;20189;-84
2022/03/08 02:50:02;;;;;;;3.85;1.30;;;18.00;44.20;;;;;;5059912;28;20224;-83
2022/03/08 02:52:29;;;;;;;2.40;1.30;;;18.10;43.80;;;;;;5060335;28;20189;-85
2022/03/08 02:54:59;;;;;;;2.20;1.40;;;18.00;43.90;;;;;;5044218;28;20571;-85
2022/03/08 02:57:25;;;;;;;2.78;1.50;;;18.00;44.00;;;;;;5043608;28;20272;-86
2022/03/08 02:59:53;;;;;;;2.45;1.40;;;17.90;44.10;;;;;;5077008;28;20231;-82
2022/03/08 03:02:19;;;;;;;1.88;1.35;;;18.00;44.20;;;;;;5060006;28;20181;-87
2022/03/08 03:04:48;;;;;;;2.88;1.38;;;18.00;44.10;;;;;;5077336;28;20191;-85
2022/03/08 03:07:14;;;;;;;1.65;1.10;;;18.00;44.10;;;;;;5043517;28;20189;-85
2022/03/08 03:09:40;;;;;;;2.45;1.30;;;17.90;44.30;;;;;;5059971;28;20209;-85
2022/03/08 03:12:09;;;;;;;1.83;1.30;;;17.90;44.10;;;;;;5060029;28;20150;-86
2022/03/08 03:14:39;;;;;;;2.17;1.30;;;18.00;44.20;;;;;;5060145;28;20184;-84
2022/03/08 03:17:06;;;;;;;3.38;1.33;;;17.90;44.20;;;;;;5043307;28;20246;-83
2022/03/08 03:19:36;;;;;;;2.50;1.30;;;18.00;44.30;;;;;;5043733;28;20185;-86
2022/03/08 03:22:11;;;;;;;1.92;1.13;;;18.00;43.90;;;;;;5059940;28;20276;-86
2022/03/08 03:24:42;;;;;;;2.53;1.50;;;17.90;44.30;;;;;;5043907;28;20181;-87
2022/03/08 03:27:11;;;;;;;2.83;1.23;;;17.90;44.10;;;;;;5059856;28;20181;-85
2022/03/08 03:29:39;;;;;;;2.63;1.33;;;18.00;43.90;;;;;;5043112;28;20270;-84
2022/03/08 03:32:09;;;;;;;2.00;1.00;;;17.90;44.10;;;;;;5043654;28;20210;-83
2022/03/08 03:34:34;;;;;;;4.35;1.20;;;17.90;44.10;;;;;;5039972;28;20237;-85
2022/03/08 03:37:04;;;;;;;2.38;1.20;;;17.90;44.10;;;;;;5058597;28;20166;-84
2022/03/08 03:39:31;;;;;;;3.33;1.42;;;17.90;44.30;;;;;;5040401;28;20178;-83
2022/03/08 03:41:58;;;;;;;1.38;1.00;;;17.90;44.30;;;;;;5022701;28;20177;-84
2022/03/08 03:44:29;;;;;;;2.30;1.20;;;18.00;44.20;;;;;;5039785;28;20177;-85
2022/03/08 03:47:00;;;;;;;3.50;1.52;;;17.90;44.30;;;;;;5023544;28;20185;-83
2022/03/08 03:49:30;;;;;;;2.60;1.15;;;17.90;44.40;;;;;;5023096;28;20530;-84
2022/03/08 03:52:02;;;;;;;3.50;1.23;;;17.90;44.50;;;;;;5023102;28;20219;-86
2022/03/08 03:54:32;;;;;;;4.28;1.30;;;17.90;44.40;;;;;;5023118;28;20185;-84
2022/03/08 03:56:58;;;;;;;1.90;1.20;;;17.90;44.50;;;;;;5040278;28;20177;-82
2022/03/08 03:59:25;;;;;;;3.38;1.50;;;17.90;44.40;;;;;;5040842;28;20523;-82
2022/03/08 04:01:52;;;;;;;2.30;1.20;;;17.90;44.50;;;;;;5039291;28;20236;-83
2022/03/08 04:04:24;;;;;;;3.03;1.30;;;17.90;44.30;;;;;;5023586;28;20209;-86
2022/03/08 04:06:51;;;;;;;1.48;1.30;;;17.90;44.60;;;;;;5007531;28;20178;-84
2022/03/08 04:09:17;;;;;;;2.13;1.23;;;17.90;44.50;;;;;;5040165;28;20201;-87
2022/03/08 04:11:44;;;;;;;1.20;1.10;;;17.90;44.60;;;;;;5040735;28;20178;-83
2022/03/08 04:14:11;;;;;;;3.00;1.20;;;18.00;44.50;;;;;;5040102;28;20531;-85
2022/03/08 04:16:38;;;;;;;2.95;1.38;;;17.90;44.40;;;;;;5038887;28;20241;-84
2022/03/08 04:19:05;;;;;;;1.75;1.30;;;17.90;44.50;;;;;;5021879;28;20181;-84
2022/03/08 04:21:32;;;;;;;3.92;1.30;;;17.90;44.70;;;;;;5038894;28;20182;-86
2022/03/08 04:23:59;;;;;;;2.03;1.15;;;17.90;44.50;;;;;;5006425;28;20178;-84
2022/03/08 04:26:26;;;;;;;2.95;1.33;;;17.90;44.40;;;;;;5022343;28;20182;-83
2022/03/08 04:28:52;;;;;;;3.08;1.42;;;17.90;44.50;;;;;;5022712;28;20225;-85
2022/03/08 04:31:22;;;;;;;3.92;1.70;;;17.90;44.60;;;;;;5039503;28;20170;-82
2022/03/08 04:33:48;;;;;;;2.28;1.20;;;17.80;44.40;;;;;;5059499;28;20239;-85
2022/03/08 04:36:14;;;;;;;2.20;1.23;;;17.90;44.60;;;;;;5079198;28;20165;-84
2022/03/08 04:38:40;;;;;;;3.47;1.27;;;17.90;44.70;;;;;;5097337;28;20161;-87
2022/03/08 04:41:10;;;;;;;1.80;1.17;;;17.90;44.50;;;;;;5101230;28;20563;-86
2022/03/08 04:43:36;;;;;;;3.35;1.27;;;17.90;44.60;;;;;;5066497;28;20184;-83
2022/03/08 04:46:02;;;;;;;2.05;1.08;;;17.90;44.50;;;;;;5067085;28;20243;-88
2022/03/08 04:48:28;;;;;;;3.70;1.27;;;17.90;44.60;;;;;;5101180;28;20206;-85
2022/03/08 04:50:54;;;;;;;1.95;1.10;;;17.80;44.60;;;;;;5083861;28;20156;-82
2022/03/08 04:53:23;;;;;;;2.22;1.20;;;17.80;44.70;;;;;;5083121;28;20171;-84
2022/03/08 04:55:53;;;;;;;2.30;1.13;;;17.90;44.80;;;;;;5066136;28;20187;-84
2022/03/08 04:58:19;;;;;;;4.47;1.35;;;17.80;44.60;;;;;;5066101;28;20188;-85
2022/03/08 05:00:49;;;;;;;2.28;1.30;;;17.80;44.60;;;;;;5083181;28;20157;-87
2022/03/08 05:03:15;;;;;;;2.25;1.20;;;17.80;44.70;;;;;;5049300;28;20184;-87
2022/03/08 05:05:45;;;;;;;1.83;1.30;;;17.80;44.70;;;;;;5083301;28;20214;-85
2022/03/08 05:08:10;;;;;;;1.85;1.30;;;17.80;44.80;;;;;;5065881;28;20612;-84
2022/03/08 05:10:36;;;;;;;2.00;1.17;;;17.80;44.40;;;;;;5050412;28;20196;-84
2022/03/08 05:13:03;;;;;;;1.80;1.05;;;17.80;44.60;;;;;;5083134;28;20235;-86
2022/03/08 05:15:33;;;;;;;3.17;1.20;;;17.80;44.30;;;;;;5082876;28;20160;-87
2022/03/08 05:18:00;;;;;;;2.20;1.10;;;17.90;44.70;;;;;;5065030;28;20206;-83
2022/03/08 05:20:26;;;;;;;2.35;1.20;;;17.70;44.70;;;;;;5100181;28;20149;-82
2022/03/08 05:22:52;;;;;;;2.33;1.17;;;17.90;44.80;;;;;;5101150;28;20161;-86
2022/03/08 05:25:22;;;;;;;3.33;1.20;;;17.80;44.30;;;;;;5101696;28;20157;-84
2022/03/08 05:27:48;;;;;;;3.05;1.15;;;17.80;44.30;;;;;;5050435;28;20181;-84
2022/03/08 05:30:19;;;;;;;1.92;1.20;;;17.90;43.90;;;;;;5101921;28;20666;-87
2022/03/08 05:32:45;;;;;;;2.15;1.20;;;17.90;43.70;;;;;;5065865;28;20177;-87
2022/03/08 05:35:15;;;;;;;2.58;1.30;;;17.90;43.70;;;;;;5064522;28;20227;-82
2022/03/08 05:37:41;;;;;;;1.65;1.13;;;18.00;43.20;;;;;;5063294;28;20215;-87
2022/03/08 05:40:08;;;;;;;2.25;1.30;;;18.10;43.30;;;;;;5081217;28;20204;-84
2022/03/08 05:42:34;;;;;;;2.05;0.98;;;18.10;43.20;;;;;;5080881;28;20161;-85
2022/03/08 05:45:00;;;;;;;2.28;0.95;;;18.10;43.20;;;;;;5064377;28;20608;-84
2022/03/08 05:47:33;;;;;;;1.80;1.02;;;18.10;42.80;;;;;;5080907;28;20197;-85
2022/03/08 05:49:59;;;;;;;3.20;1.20;;;18.10;43.10;;;;;;5046036;28;20285;-84
2022/03/08 05:52:29;;;;;;;3.70;1.35;;;18.20;42.90;;;;;;5062825;28;20208;-82
2022/03/08 05:54:58;;;;;;;1.20;0.90;;;18.20;42.80;;;;;;5063305;28;20180;-81
2022/03/08 05:57:24;;;;;;;2.03;1.00;;;18.20;42.80;;;;;;5046494;28;20277;-82
2022/03/08 05:59:54;;;;;;;2.47;1.40;;;18.20;42.50;;;;;;5063490;28;20189;-83
2022/03/08 06:02:21;;;;;;;1.35;0.98;;;18.20;42.40;;;;;;5063206;28;20185;-82
2022/03/08 06:04:50;;;;;;;1.77;1.10;;;18.30;42.10;;;;;;5061072;28;20173;-85
2022/03/08 06:07:21;;;;;;;3.08;1.20;;;18.30;42.10;;;;;;5058840;28;20216;-83
2022/03/08 06:09:51;;;;;;;2.45;1.15;;;18.30;41.80;;;;;;5026782;28;20285;-84
2022/03/08 06:12:23;;;;;;;1.48;1.13;;;18.30;41.90;;;;;;5025872;28;20177;-83
2022/03/08 06:14:49;;;;;;;3.78;1.30;;;18.30;42.00;;;;;;5056484;28;20193;-85
2022/03/08 06:17:15;;;;;;;2.10;1.23;;;18.30;41.60;;;;;;5073982;28;20709;-83
2022/03/08 06:19:40;;;;;;;1.58;1.20;;;18.30;41.40;;;;;;5074735;28;20169;-83
2022/03/08 06:22:13;;;;;;;1.77;1.13;;;18.30;41.80;;;;;;5073490;28;20157;-82
2022/03/08 06:24:39;;;;;;;1.83;1.20;;;18.30;41.70;;;;;;5042083;28;20177;-83
2022/03/08 06:27:06;;;;;;;1.25;0.90;;;18.30;42.00;;;;;;5077855;28;20496;-83
2022/03/08 06:29:34;;;;;;;1.60;1.00;;;18.30;41.40;;;;;;5060502;28;20213;-86
2022/03/08 06:32:01;;;;;;;1.67;1.20;;;18.30;41.40;;;;;;5060471;28;20565;-82
2022/03/08 06:34:26;;;;;;;1.60;1.00;;;18.40;41.00;;;;;;5040214;28;20232;-82
2022/03/08 06:36:53;;;;;;;1.15;0.95;;;18.30;41.30;;;;;;5038073;28;20173;-82
2022/03/08 06:39:20;;;;;;;1.50;1.15;;;18.30;41.00;;;;;;5038451;28;20219;-84
2022/03/08 06:41:47;;;;;;;3.42;1.08;;;18.40;41.40;;;;;;5039059;28;20181;-85
2022/03/08 06:44:17;;;;;;;1.38;1.00;;;18.40;41.40;;;;;;5024855;28;20175;-84
2022/03/08 06:46:46;;;;;;;1.23;1.00;;;18.30;41.10;;;;;;5027085;28;20213;-84
2022/03/08 06:49:16;;;;;;;1.23;1.02;;;18.30;40.80;;;;;;5031377;28;20221;-82
2022/03/08 06:51:43;;;;;;;1.67;1.00;;;18.40;40.80;;;;;;5030669;28;20260;-83
2022/03/08 06:54:09;;;;;;;2.35;1.10;;;18.40;41.40;;;;;;5047154;28;20177;-83
2022/03/08 06:56:35;;;;;;;1.25;1.02;;;18.40;41.00;;;;;;5062854;28;20609;-82
2022/03/08 06:59:02;;;;;;;1.85;0.90;;;18.40;40.80;;;;;;5056848;28;20177;-85
2022/03/08 07:01:29;;;;;;;1.65;1.13;;;18.40;40.90;;;;;;5055999;28;20206;-81
2022/03/08 07:03:59;;;;;;;1.48;1.05;;;18.40;40.70;;;;;;5039626;28;20243;-83
2022/03/08 07:06:27;;;;;;;1.33;1.10;;;18.30;40.40;;;;;;5006902;28;20181;-82
2022/03/08 07:08:53;;;;;;;1.55;1.00;;;18.40;40.40;;;;;;5007342;28;20210;-83
2022/03/08 07:11:21;;;;;;;1.77;1.33;;;18.50;40.60;;;;;;5038800;28;20159;-85
2022/03/08 07:13:50;;;;;;;1.88;1.05;;;18.40;40.70;;;;;;5021730;28;20186;-86
2022/03/08 07:16:20;;;;;;;1.45;1.00;;;18.50;40.50;;;;;;5037823;28;20606;-85
2022/03/08 07:18:47;;;;;;;1.42;1.00;;;18.50;40.50;;;;;;5038507;28;20194;-84
2022/03/08 07:21:14;;;;;;;1.65;1.20;;;18.50;40.30;;;;;;5020819;28;20266;-84
2022/03/08 07:23:41;;;;;;;3.25;1.30;;;18.50;40.50;;;;;;5038665;28;20250;-84
2022/03/08 07:26:11;;;;;;;1.40;1.13;;;18.50;40.90;;;;;;5038147;28;20272;-84
2022/03/08 07:28:44;;;;;;;1.30;1.20;;;18.40;40.10;;;;;;5006409;28;20217;-84
2022/03/08 07:31:14;;;;;;;1.08;0.98;;;18.50;40.20;;;;;;5039240;28;20640;-87
2022/03/08 07:33:41;;;;;;;1.90;1.08;;;18.50;40.20;;;;;;5023236;28;20182;-88
2022/03/08 07:36:08;;;;;;;2.03;1.13;;;18.50;40.10;;;;;;5047272;28;20191;-87
2022/03/08 07:38:34;;;;;;;2.65;1.20;;;18.50;40.10;;;;;;5062690;28;20666;-83
2022/03/08 07:41:04;;;;;;;1.50;1.10;;;18.60;41.10;;;;;;5060274;28;20152;-82
2022/03/08 07:43:36;;;;;;;1.45;1.20;;;18.60;41.40;;;;;;5042473;28;20189;-87
2022/03/08 07:46:04;;;;;;;1.85;1.10;;;18.60;40.70;;;;;;5058988;28;20172;-81
2022/03/08 07:48:31;;;;;;;1.25;1.05;;;18.60;40.80;;;;;;5033652;28;20284;-85
2022/03/08 07:50:57;;;;;;;2.00;1.10;;;18.60;40.40;;;;;;5067567;28;20180;-81
2022/03/08 07:53:24;;;;;;;1.30;0.98;;;18.60;40.30;;;;;;5034908;28;20188;-85
2022/03/08 07:55:51;;;;;;;1.83;1.20;;;18.60;40.10;;;;;;5050832;28;20196;-85
2022/03/08 07:58:21;;;;;;;1.50;1.00;;;18.60;40.10;;;;;;5067920;28;20192;-82
2022/03/08 08:00:47;;;;;;;1.52;1.10;;;18.60;40.10;;;;;;5068475;28;20207;-82
2022/03/08 08:03:18;;;;;;;1.92;1.17;;;18.70;39.90;;;;;;5072008;28;20165;-82
2022/03/08 08:05:46;;;;;;;1.38;1.05;;;18.70;39.70;;;;;;5051823;28;20180;-86
2022/03/08 08:08:13;;;;;;;2.65;1.00;;;18.60;39.60;;;;;;5052049;28;20183;-82
2022/03/08 08:10:44;;;;;;;2.47;1.00;;;18.70;39.60;;;;;;5085783;28;20226;-80
2022/03/08 08:13:14;;;;;;;1.17;1.00;;;18.70;39.50;;;;;;5049285;28;20554;-82
2022/03/08 08:15:44;;;;;;;1.65;1.25;;;18.60;39.40;;;;;;5072092;28;20209;-80
2022/03/08 08:18:12;;;;;;;1.38;1.00;;;18.70;38.80;;;;;;5056846;28;20180;-81
2022/03/08 08:20:43;;;;;;;1.80;1.10;;;18.70;39.10;;;;;;5053484;28;20271;-82
2022/03/08 08:23:15;;;;;;;1.17;1.05;;;18.70;39.20;;;;;;5065030;28;20527;-84
2022/03/08 08:25:42;;;;;;;2.22;1.00;;;18.60;39.10;;;;;;5065882;28;20173;-82
2022/03/08 08:28:12;;;;;;;1.35;0.90;;;18.70;39.10;;;;;;5069431;28;20400;-82
2022/03/08 08:30:43;;;;;;;1.50;1.10;;;18.60;39.20;;;;;;5072006;28;20253;-82
2022/03/08 08:33:13;;;;;;;1.45;1.27;;;18.70;39.00;;;;;;5071000;28;20189;-84
2022/03/08 08:35:46;;;;;;;0.90;0.90;;;18.70;39.70;;;;;;5067468;28;20225;-83
2022/03/08 08:38:19;;;;;;;1.50;1.20;;;18.70;39.00;;;;;;5052038;28;20609;-83
2022/03/08 08:40:46;;;;;;;2.55;1.00;;;18.70;38.80;;;;;;5068889;28;20192;-83
2022/03/08 08:43:16;;;;;;;1.20;1.10;;;18.80;39.00;;;;;;5034273;28;20230;-84
2022/03/08 08:45:43;;;;;;;1.58;1.15;;;18.70;38.90;;;;;;5067166;28;20215;-86
2022/03/08 08:48:13;;;;;;;3.17;1.23;;;18.60;38.80;;;;;;5061372;28;20181;-86
2022/03/08 08:50:40;;;;;;;2.88;1.23;;;18.70;38.80;;;;;;5046588;28;20185;-86
2022/03/08 08:53:07;;;;;;;1.33;0.95;;;18.70;38.70;;;;;;5060203;28;20185;-86
2022/03/08 08:55:36;;;;;;;1.92;1.00;;;18.70;38.70;;;;;;5041816;28;20185;-86
2022/03/08 08:58:07;;;;;;;2.72;1.08;;;18.70;38.60;;;;;;5058578;28;20655;-84
2022/03/08 09:00:34;;;;;;;1.52;1.10;;;18.80;38.40;;;;;;5058611;28;20181;-85
2022/03/08 09:03:06;;;;;;;2.88;1.30;;;18.80;38.40;;;;;;5076674;28;20203;-85
2022/03/08 09:05:33;;;;;;;1.20;1.02;;;18.80;38.40;;;;;;5043265;28;20177;-85
2022/03/08 09:08:00;;;;;;;1.23;0.90;;;18.80;38.60;;;;;;5025495;28;20185;-85
2022/03/08 09:10:28;;;;;;;2.13;0.98;;;18.90;38.50;;;;;;5057994;28;20254;-83
2022/03/08 09:12:55;;;;;;;2.50;1.30;;;18.90;38.20;;;;;;5057876;28;20177;-84
2022/03/08 09:15:21;;;;;;;1.10;0.93;;;18.90;38.30;;;;;;5041366;28;20173;-84
2022/03/08 09:17:48;;;;;;;1.38;1.00;;;18.90;38.20;;;;;;5075468;28;20168;-88
2022/03/08 09:20:15;;;;;;;2.13;1.10;;;19.00;38.00;;;;;;5058994;28;20174;-87
2022/03/08 09:22:43;;;;;;;1.58;0.90;;;19.00;38.00;;;;;;5031824;28;20170;-82
2022/03/08 09:25:11;;;;;;;3.65;1.20;;;18.90;38.10;;;;;;5033548;28;20185;-83
2022/03/08 09:27:40;;;;;;;3.08;1.20;;;18.90;38.10;;;;;;5048969;28;20188;-82
2022/03/08 09:30:08;;;;;;;1.05;0.95;;;19.00;38.00;;;;;;5052039;28;20236;-81
2022/03/08 09:32:34;;;;;;;1.75;1.30;;;19.00;37.80;;;;;;5051703;28;20192;-81
2022/03/08 09:35:00;;;;;;;1.40;1.10;;;19.00;38.00;;;;;;5069384;28;20221;-82
2022/03/08 09:37:31;;;;;;;2.42;1.02;;;19.00;38.00;;;;;;5069765;28;20158;-82
2022/03/08 09:40:00;;;;;;;1.77;1.02;;;19.00;37.80;;;;;;5069039;28;20193;-82
2022/03/08 09:42:29;;;;;;;1.50;1.38;;;19.00;37.80;;;;;;5034380;28;20238;-82
2022/03/08 09:45:01;;;;;;;2.28;1.00;;;19.00;37.90;;;;;;5048680;28;20184;-83
2022/03/08 09:47:29;;;;;;;1.92;1.23;;;19.00;37.90;;;;;;5049765;28;20230;-82
2022/03/08 09:49:59;;;;;;;1.83;1.30;;;19.00;37.80;;;;;;5060926;28;20213;-83
2022/03/08 09:52:27;;;;;;;1.60;1.10;;;19.00;37.90;;;;;;5062354;28;20184;-81
2022/03/08 09:54:55;;;;;;;1.52;1.30;;;19.00;37.80;;;;;;5045502;28;20185;-81
2022/03/08 09:57:25;;;;;;;1.40;1.10;;;19.10;37.90;;;;;;5046629;28;20211;-81
2022/03/08 09:59:55;;;;;;;1.80;1.33;;;19.00;37.80;;;;;;5049337;28;20189;-85
2022/03/08 10:02:26;;;;;;;1.48;1.10;;;19.10;37.70;;;;;;5045976;28;20235;-88
2022/03/08 10:05:04;;;;;;;2.67;1.38;;;19.10;37.50;;;;;;5045065;28;20210;-85
2022/03/08 10:07:34;;;;;;;3.17;1.20;;;19.10;37.60;;;;;;5080899;28;20687;-80
2022/03/08 10:10:02;;;;;;;3.65;1.30;;;19.10;37.60;;;;;;5045665;28;20217;-82
2022/03/08 10:12:29;;;;;;;1.70;1.17;;;19.20;37.50;;;;;;5046695;28;20165;-83
2022/03/08 10:14:56;;;;;;;1.20;1.10;;;19.20;37.30;;;;;;5060255;28;20153;-83
2022/03/08 10:17:38;;;;;;;1.10;1.10;;;19.20;37.40;;;;;;5059901;28;20215;-87
2022/03/08 10:20:08;;;;;;;1.30;1.20;;;19.20;37.30;;;;;;5076668;28;20236;-84
2022/03/08 10:22:40;;;;;;;2.55;1.13;;;19.20;37.20;;;;;;5059521;28;20201;-83
2022/03/08 10:25:28;;;;;;;1.20;1.00;;;19.30;37.20;;;;;;5042837;28;20181;-86
2022/03/08 10:28:02;;;;;;;3.15;1.30;;;19.10;37.30;;;;;;5043616;28;20181;-84
2022/03/08 10:30:44;;;;;;;1.20;1.10;;;19.20;37.50;;;;;;5044617;28;20220;-83
2022/03/08 10:33:19;;;;;;;2.03;1.27;;;19.20;37.40;;;;;;5050594;28;20233;-80
2022/03/08 10:35:47;;;;;;;1.70;1.20;;;19.20;37.40;;;;;;5065898;28;20255;-85
2022/03/08 10:38:16;;;;;;;1.50;1.25;;;19.20;37.50;;;;;;5063668;28;20179;-83
2022/03/08 10:40:45;;;;;;;1.60;1.17;;;19.20;37.50;;;;;;5047390;28;20177;-82
2022/03/08 10:43:15;;;;;;;1.35;1.23;;;19.10;37.70;;;;;;5061710;28;20184;-84
2022/03/08 10:45:43;;;;;;;1.40;1.20;;;19.00;37.70;;;;;;5041574;28;20184;-84
2022/03/08 10:48:10;;;;;;;1.15;1.05;;;19.20;37.30;;;;;;5059108;28;20158;-86
2022/03/08 10:50:37;;;;;;;1.85;1.42;;;19.30;36.80;;;;;;5061750;28;20219;-85
2022/03/08 10:53:04;;;;;;;1.42;1.30;;;19.40;37.00;;;;;;5060587;28;20165;-83
2022/03/08 10:55:32;;;;;;;1.60;1.20;;;19.30;37.30;;;;;;5057874;28;20161;-83
2022/03/08 10:58:01;;;;;;;1.60;1.30;;;19.30;37.30;;;;;;5058163;28;20199;-86
2022/03/08 11:00:29;;;;;;;1.83;1.30;;;19.20;37.50;;;;;;5061469;28;20165;-86
2022/03/08 11:03:05;;;;;;;1.30;1.10;;;19.20;37.40;;;;;;5059441;28;20172;-87
2022/03/08 11:05:43;;;;;;;1.50;1.40;;;19.20;37.50;;;;;;5042210;28;20662;-86
2022/03/08 11:08:08;;;;;;;1.50;1.25;;;19.20;37.50;;;;;;5059075;28;20156;-84
2022/03/08 11:10:38;;;;;;;2.17;1.20;;;19.20;37.30;;;;;;5059251;28;20165;-85
2022/03/08 11:13:04;;;;;;;1.50;1.30;;;19.20;37.20;;;;;;5057022;28;20173;-86
2022/03/08 11:15:31;;;;;;;1.38;1.27;;;19.20;37.10;;;;;;5039014;28;20755;-83
2022/03/08 11:18:02;;;;;;;2.55;1.50;;;19.20;36.90;;;;;;5038755;28;20168;-82
2022/03/08 11:20:31;;;;;;;1.30;1.20;;;19.20;37.00;;;;;;5022746;28;20550;-87
2022/03/08 11:23:01;;;;;;;1.27;1.17;;;19.30;36.90;;;;;;5038921;28;20181;-84
2022/03/08 11:25:33;;;;;;;1.77;1.33;;;19.30;36.70;;;;;;5022221;28;20177;-85
2022/03/08 11:28:06;;;;;;;1.40;1.30;;;19.30;36.60;;;;;;5039017;28;20181;-85
2022/03/08 11:30:40;;;;;;;1.30;1.20;;;19.50;36.50;;;;;;5022058;28;20208;-84
2022/03/08 11:33:21;;;;;;;1.40;1.02;;;19.40;36.50;;;;;;5038943;28;20177;-85
2022/03/08 11:35:55;;;;;;;1.40;1.30;;;19.40;36.30;;;;;;5026207;28;20338;-86
2022/03/08 11:38:23;;;;;;;1.85;1.20;;;19.40;36.50;;;;;;5040875;28;20223;-88
2022/03/08 11:40:55;;;;;;;1.92;1.20;;;19.30;36.60;;;;;;5055072;28;20188;-82
2022/03/08 11:43:38;;;;;;;1.27;1.17;;;19.40;36.60;;;;;;5058722;28;20174;-83
2022/03/08 11:46:17;;;;;;;1.52;1.25;;;19.30;36.50;;;;;;5045212;28;20184;-86
2022/03/08 11:48:55;;;;;;;1.63;1.25;;;19.30;36.40;;;;;;5040778;28;20235;-88
2022/03/08 11:51:27;;;;;;;1.88;1.40;;;19.30;36.60;;;;;;5043368;28;20169;-88
2022/03/08 11:54:06;;;;;;;1.48;1.23;;;19.30;36.50;;;;;;5026813;28;20200;-84
2022/03/08 11:56:46;;;;;;;1.52;1.40;;;19.30;36.60;;;;;;5043299;28;20170;-89
2022/03/08 11:59:13;;;;;;;1.50;1.10;;;19.30;36.50;;;;;;5046118;28;20189;-83
2022/03/08 12:01:44;;;;;;;1.67;1.38;;;19.30;36.50;;;;;;5043603;28;20181;-87
2022/03/08 12:04:16;;;;;;;1.65;1.35;;;19.30;36.80;;;;;;5006913;28;20205;-86
2022/03/08 12:06:54;;;;;;;1.92;1.40;;;19.20;36.80;;;;;;5023213;28;20186;-85
2022/03/08 12:09:22;;;;;;;2.80;1.35;;;19.20;36.70;;;;;;5026942;28;20217;-86
2022/03/08 12:11:58;;;;;;;1.48;1.38;;;19.20;36.80;;;;;;5008763;28;20681;-86
2022/03/08 12:14:27;;;;;;;1.50;1.35;;;19.20;36.70;;;;;;5041779;28;20184;-88
2022/03/08 12:17:10;;;;;;;1.65;1.40;;;19.20;36.90;;;;;;5042657;28;20154;-84
2022/03/08 12:19:39;;;;;;;1.52;1.23;;;19.20;36.80;;;;;;5059493;28;20595;-84
2022/03/08 12:22:14;;;;;;;1.58;1.48;;;19.20;36.80;;;;;;5041380;28;20166;-83
2022/03/08 12:24:59;;;;;;;1.85;1.27;;;19.20;36.70;;;;;;5023465;28;20232;-84
2022/03/08 12:27:49;;;;;;;1.55;1.45;;;19.20;36.70;;;;;;5039410;28;20702;-84
2022/03/08 12:30:18;;;;;;;1.60;1.50;;;19.20;36.60;;;;;;5022083;28;20256;-85
2022/03/08 12:32:48;;;;;;;1.20;1.10;;;19.20;36.50;;;;;;5022306;28;20189;-84
2022/03/08 12:35:18;;;;;;;1.70;1.35;;;19.30;36.50;;;;;;5053853;28;20228;-85
2022/03/08 12:37:49;;;;;;;2.13;1.40;;;19.30;36.40;;;;;;5064654;28;20252;-83
2022/03/08 12:40:27;;;;;;;1.27;1.17;;;19.30;36.50;;;;;;5048730;28;20168;-84
2022/03/08 12:43:00;;;;;;;2.13;1.77;;;19.30;36.40;;;;;;5046797;28;20180;-86
2022/03/08 12:45:31;;;;;;;1.25;1.20;;;19.30;36.50;;;;;;5050609;28;20264;-87
2022/03/08 12:48:06;;;;;;;1.60;1.30;;;19.30;36.60;;;;;;5064382;28;20526;-85
2022/03/08 12:50:36;;;;;;;1.85;1.40;;;19.20;36.50;;;;;;5052729;28;20236;-83
2022/03/08 12:53:18;;;;;;;2.22;1.30;;;19.30;36.50;;;;;;5054045;28;20220;-85
2022/03/08 12:55:45;;;;;;;1.67;1.35;;;19.30;36.50;;;;;;5072244;28;20176;-82
2022/03/08 12:58:13;;;;;;;1.60;1.30;;;19.30;36.40;;;;;;5071608;28;20176;-82